Time;durP1;ratioP1;P1;durP2;ratioP2;P2;SDS_P1;SDS_P2;PMS_P1;PMS_P2;Temp;Humidity;BMP_temperature;BMP_pressure;BME280_temperature;BME280_humidity;BME280_pressure;Samples;Min_cycle;Max_cycle;Signal;HPM_P1;HPM_P2
2023/10/15 00:00:18;;;;;;;8.55;5.00;;;;;;;17.58;100.00;100171.66;5091529;28;20391;-68
2023/10/15 00:02:46;;;;;;;9.00;4.93;;;;;;;17.61;100.00;100168.63;5082295;28;20031;-68
2023/10/15 00:05:20;;;;;;;8.38;4.35;;;;;;;17.65;100.00;100166.41;5071211;28;20391;-68
2023/10/15 00:07:48;;;;;;;9.23;4.55;;;;;;;17.67;100.00;100161.78;5070099;28;20111;-68
2023/10/15 00:10:17;;;;;;;7.00;4.80;;;;;;;17.65;100.00;100158.50;5072668;28;20050;-68
2023/10/15 00:12:48;;;;;;;10.95;5.13;;;;;;;17.62;100.00;100158.91;5090128;28;20036;-68
2023/10/15 00:15:18;;;;;;;9.13;5.22;;;;;;;17.62;100.00;100156.28;5086411;28;20089;-68
2023/10/15 00:17:54;;;;;;;6.13;4.13;;;;;;;17.63;100.00;100153.44;5075572;28;20051;-68
2023/10/15 00:20:20;;;;;;;;;;;;;;;17.64;100.00;100152.44;5085505;28;20492;-68
2023/10/15 00:22:46;;;;;;;;;;;;;;;17.65;100.00;100151.47;5084587;28;19920;-68
2023/10/15 00:25:15;;;;;;;;;;;;;;;17.64;100.00;100143.72;5086793;28;19959;-68
2023/10/15 00:27:41;;;;;;;7.72;4.57;;;;;;;17.70;100.00;100129.78;5086151;28;19917;-68
2023/10/15 00:30:12;;;;;;;8.75;4.85;;;;;;;17.72;100.00;100130.41;5086240;28;20067;-68
2023/10/15 00:32:44;;;;;;;7.72;4.15;;;;;;;17.71;100.00;100119.06;5094220;28;20142;-68
2023/10/15 00:35:11;;;;;;;7.05;4.05;;;;;;;17.66;100.00;100112.75;5084048;28;20025;-68
2023/10/15 00:37:40;;;;;;;6.45;3.55;;;;;;;17.63;100.00;100105.22;5082738;28;20032;-68
2023/10/15 00:40:16;;;;;;;7.35;3.30;;;;;;;17.62;100.00;100095.69;5083018;28;20024;-67
2023/10/15 00:42:47;;;;;;;7.10;3.97;;;;;;;17.60;100.00;100090.63;5083311;28;20505;-68
2023/10/15 00:45:20;;;;;;;7.57;3.42;;;;;;;17.59;100.00;100079.28;5068375;28;20478;-67
2023/10/15 00:48:07;;;;;;;7.20;3.70;;;;;;;17.59;100.00;100084.53;5087953;28;20050;-67
2023/10/15 00:50:42;;;;;;;6.75;2.70;;;;;;;17.63;100.00;100094.69;5083420;28;20042;-68
2023/10/15 00:53:22;;;;;;;5.45;3.20;;;;;;;17.63;100.00;100074.41;5081562;28;20016;-67
2023/10/15 00:55:52;;;;;;;6.22;3.50;;;;;;;17.63;100.00;100076.25;5085419;28;20016;-68
2023/10/15 00:58:30;;;;;;;6.25;3.85;;;;;;;17.63;100.00;100073.59;5083706;28;20511;-67
2023/10/15 01:01:00;;;;;;;7.93;3.42;;;;;;;17.61;100.00;100070.34;5084688;28;20360;-67
2023/10/15 01:03:36;;;;;;;7.15;3.15;;;;;;;17.54;100.00;100075.59;5083326;28;20044;-68
2023/10/15 01:06:05;;;;;;;7.80;4.47;;;;;;;17.48;100.00;100081.69;5070191;28;20395;-68
2023/10/15 01:08:35;;;;;;;5.88;3.30;;;;;;;17.42;100.00;100080.66;5085665;28;20056;-67
2023/10/15 01:11:11;;;;;;;9.02;4.20;;;;;;;17.42;100.00;100080.66;5087710;28;20040;-68
2023/10/15 01:13:38;;;;;;;7.70;3.80;;;;;;;17.42;100.00;100114.91;5091588;28;20051;-67
2023/10/15 01:16:13;;;;;;;9.30;4.13;;;;;;;17.34;100.00;100125.59;5086049;28;20028;-67
2023/10/15 01:18:39;;;;;;;8.20;2.35;;;;;;;17.24;100.00;100138.31;5085187;28;20024;-68
2023/10/15 01:21:09;;;;;;;5.25;2.17;;;;;;;17.02;100.00;100118.34;5080725;28;20119;-72
2023/10/15 01:26:10;;;;;;;14.43;2.45;;;;;;;16.71;100.00;100110.88;5087260;28;20122;-67
2023/10/15 01:28:38;;;;;;;8.38;2.67;;;;;;;16.56;100.00;100110.94;5087249;28;20403;-68
2023/10/15 01:31:07;;;;;;;6.25;2.70;;;;;;;16.45;100.00;100108.88;5084820;28;20039;-71
2023/10/15 01:33:46;;;;;;;6.82;2.03;;;;;;;16.45;100.00;100101.81;5086463;28;20560;-71
2023/10/15 01:36:16;;;;;;;5.03;2.13;;;;;;;16.47;100.00;100105.06;5075461;28;20037;-71
2023/10/15 01:38:44;;;;;;;6.22;2.10;;;;;;;16.49;100.00;100102.22;5081576;28;20099;-70
2023/10/15 01:41:13;;;;;;;5.07;1.45;;;;;;;16.51;100.00;100100.22;5084120;28;20706;-69
2023/10/15 01:43:40;;;;;;;5.20;1.80;;;;;;;16.55;100.00;100104.06;5086781;28;20499;-69
2023/10/15 01:46:10;;;;;;;3.67;1.88;;;;;;;16.58;100.00;100106.31;5079146;28;20138;-68
2023/10/15 01:48:39;;;;;;;4.60;2.17;;;;;;;16.60;100.00;100094.59;5085870;28;20090;-70
2023/10/15 01:51:06;;;;;;;4.03;1.02;;;;;;;16.51;100.00;100092.34;5083459;28;20052;-69
2023/10/15 01:53:37;;;;;;;1.40;0.90;;;;;;;16.44;100.00;100080.97;5091159;28;20555;-68
2023/10/15 01:56:03;;;;;;;2.92;1.40;;;;;;;16.38;100.00;100071.19;5083873;28;20020;-69
2023/10/15 01:58:31;;;;;;;2.97;1.38;;;;;;;16.34;100.00;100070.78;5087529;28;20127;-69
2023/10/15 02:01:13;;;;;;;4.93;1.92;;;;;;;16.35;100.00;100077.66;5084442;28;20115;-70
2023/10/15 02:03:39;;;;;;;2.17;1.00;;;;;;;16.33;100.00;100081.47;5085470;28;20059;-69
2023/10/15 02:06:07;;;;;;;2.42;1.00;;;;;;;16.35;100.00;100090.78;5087237;28;20418;-75
2023/10/15 02:08:39;;;;;;;4.40;1.55;;;;;;;16.35;100.00;100090.78;5084617;28;20032;-73
2023/10/15 02:11:21;;;;;;;1.83;0.82;;;;;;;16.35;100.00;100077.66;5081098;28;20495;-71
2023/10/15 02:13:47;;;;;;;2.00;1.08;;;;;;;16.39;100.00;100080.72;5085644;28;20055;-70
2023/10/15 02:16:17;;;;;;;2.08;1.25;;;;;;;16.44;100.00;100081.75;5084214;28;20040;-69
2023/10/15 02:18:48;;;;;;;4.03;1.25;;;;;;;16.43;100.00;100081.97;5086379;28;20040;-70
2023/10/15 02:21:16;;;;;;;2.15;1.35;;;;;;;16.38;100.00;100084.34;5088924;28;20115;-69
2023/10/15 02:23:49;;;;;;;4.65;1.48;;;;;;;16.45;100.00;100090.47;5085748;28;20526;-69
2023/10/15 02:26:18;;;;;;;3.10;1.80;;;;;;;16.51;100.00;100079.19;5085585;28;20020;-69
2023/10/15 02:28:44;;;;;;;5.55;1.45;;;;;;;16.55;100.00;100075.13;5093549;28;20036;-70
2023/10/15 02:33:35;;;;;;;5.78;2.20;;;;;;;16.59;100.00;100065.88;5088968;28;20053;-69
2023/10/15 02:36:06;;;;;;;2.95;1.85;;;;;;;16.62;100.00;100075.19;5092471;28;20035;-69
2023/10/15 02:38:36;;;;;;;6.03;2.35;;;;;;;16.65;100.00;100085.34;5088207;28;20057;-69
2023/10/15 02:41:05;;;;;;;4.90;1.98;;;;;;;16.60;100.00;100085.91;5086242;28;20048;-69
2023/10/15 02:43:32;;;;;;;4.07;1.90;;;;;;;16.58;100.00;100083.47;5090508;28;20044;-69
2023/10/15 02:46:10;;;;;;;5.30;2.60;;;;;;;16.56;100.00;100072.31;5093672;28;20039;-69
2023/10/15 02:48:41;;;;;;;3.42;2.03;;;;;;;16.57;100.00;100067.88;5091140;28;20083;-69
2023/10/15 02:51:08;;;;;;;6.05;1.95;;;;;;;16.57;100.00;100063.44;5086398;28;20070;-69
2023/10/15 02:53:50;;;;;;;6.65;2.10;;;;;;;16.50;100.00;100067.84;5086938;28;20035;-69
2023/10/15 02:56:17;;;;;;;2.63;1.45;;;;;;;16.46;100.00;100057.91;5091085;28;20493;-69
2023/10/15 02:58:44;;;;;;;4.82;1.88;;;;;;;16.42;100.00;100051.41;5088410;28;20039;-69
2023/10/15 03:01:20;;;;;;;3.60;1.50;;;;;;;16.40;100.00;100051.59;5087923;28;20518;-68
2023/10/15 03:03:50;;;;;;;6.05;1.52;;;;;;;16.42;100.00;100054.84;5082886;28;20042;-69
2023/10/15 03:06:28;;;;;;;3.95;1.42;;;;;;;16.47;100.00;100051.66;5085662;28;20120;-69
2023/10/15 03:08:56;;;;;;;2.17;1.30;;;;;;;16.53;100.00;100050.88;5083571;28;20391;-69
2023/10/15 03:11:23;;;;;;;2.60;1.02;;;;;;;16.42;100.00;100052.22;5089367;28;20085;-70
2023/10/15 03:13:56;;;;;;;3.55;1.30;;;;;;;16.40;100.00;100054.22;5090958;28;20512;-69
2023/10/15 03:16:23;;;;;;;3.90;1.83;;;;;;;16.44;100.00;100055.47;5081040;28;20804;-68
2023/10/15 03:18:50;;;;;;;3.22;1.20;;;;;;;16.43;100.00;100051.22;5090339;28;20133;-68
2023/10/15 03:21:24;;;;;;;3.03;1.52;;;;;;;16.34;100.00;100051.56;5081645;28;20027;-69
2023/10/15 03:23:55;;;;;;;1.43;0.87;;;;;;;16.28;100.00;100047.88;5088654;28;20119;-68
2023/10/15 03:26:22;;;;;;;4.47;1.00;;;;;;;16.23;100.00;100047.63;5089205;28;20027;-69
2023/10/15 03:28:51;;;;;;;3.80;1.13;;;;;;;16.25;100.00;100049.06;5087994;28;20118;-70
2023/10/15 03:31:24;;;;;;;1.92;1.15;;;;;;;16.21;100.00;100053.06;5092917;28;20032;-70
2023/10/15 03:39:24;;;;;;;3.10;1.13;;;;;;;16.08;100.00;100047.72;5082180;28;20391;-71
2023/10/15 03:45:00;;;;;;;3.42;1.58;;;;;;;16.05;100.00;100039.44;5082099;28;20514;-70
2023/10/15 03:47:26;;;;;;;4.15;1.25;;;;;;;16.08;100.00;100047.72;5092367;28;20040;-70
2023/10/15 03:49:52;;;;;;;3.50;1.38;;;;;;;16.15;100.00;100053.84;5088999;28;20395;-69
2023/10/15 03:52:21;;;;;;;4.05;1.98;;;;;;;16.25;100.00;100053.50;5086278;28;20036;-69
2023/10/15 03:54:50;;;;;;;3.17;1.58;;;;;;;16.31;100.00;100054.56;5089679;28;20383;-69
2023/10/15 03:57:27;;;;;;;3.40;1.83;;;;;;;16.33;100.00;100049.94;5096169;28;20097;-70
2023/10/15 03:59:53;;;;;;;5.55;1.88;;;;;;;16.31;100.00;100044.03;5090074;28;20089;-70
2023/10/15 04:02:29;;;;;;;5.35;1.80;;;;;;;16.34;100.00;100047.09;5079720;28;20399;-70
2023/10/15 04:05:07;;;;;;;2.92;1.80;;;;;;;16.38;100.00;100052.78;5084245;28;20495;-70
2023/10/15 04:07:38;;;;;;;2.97;2.03;;;;;;;16.40;100.00;100046.34;5089734;28;20043;-70
2023/10/15 04:10:08;;;;;;;2.80;1.48;;;;;;;16.38;100.00;100034.41;5084026;28;20145;-72
2023/10/15 04:12:40;;;;;;;4.20;1.52;;;;;;;16.38;100.00;100037.03;5081012;28;20040;-71
2023/10/15 04:15:13;;;;;;;5.28;2.00;;;;;;;16.40;100.00;100042.91;5084107;28;20403;-69
2023/10/15 04:17:40;;;;;;;6.13;2.30;;;;;;;16.42;100.00;100038.25;5084514;28;20036;-70
2023/10/15 04:20:06;;;;;;;2.15;1.20;;;;;;;16.41;100.00;100034.81;5090138;28;20093;-71
2023/10/15 04:22:36;;;;;;;3.83;1.40;;;;;;;16.42;100.00;100038.25;5079467;28;20040;-70
2023/10/15 04:25:06;;;;;;;3.05;0.90;;;;;;;16.41;100.00;100031.38;5085063;28;20032;-70
2023/10/15 04:27:34;;;;;;;4.95;1.48;;;;;;;16.40;100.00;100035.00;5087926;28;20051;-69
2023/10/15 04:30:00;;;;;;;3.90;1.83;;;;;;;16.43;100.00;100034.63;5081403;28;20081;-70
2023/10/15 04:32:29;;;;;;;7.85;2.08;;;;;;;16.43;100.00;100032.00;5090445;28;20027;-70
2023/10/15 04:35:11;;;;;;;2.78;2.00;;;;;;;16.42;100.00;100033.00;5085526;28;20085;-71
2023/10/15 04:37:37;;;;;;;5.32;2.30;;;;;;;16.42;100.00;100030.38;5085355;28;20035;-71
2023/10/15 04:40:11;;;;;;;4.93;2.35;;;;;;;16.41;100.00;100029.56;5063679;28;20111;-70
2023/10/15 04:42:43;;;;;;;4.00;2.03;;;;;;;16.43;100.00;100032.00;5084065;28;20035;-71
2023/10/15 04:45:20;;;;;;;5.30;2.90;;;;;;;16.44;100.00;100029.19;5085843;28;20063;-71
2023/10/15 04:47:51;;;;;;;3.67;2.22;;;;;;;16.46;100.00;100029.00;5086837;28;20480;-71
2023/10/15 04:50:16;;;;;;;7.03;2.97;;;;;;;16.48;100.00;100032.25;5085223;28;20038;-69
2023/10/15 04:52:43;;;;;;;5.15;2.50;;;;;;;16.51;100.00;100037.13;5093678;28;20035;-71
2023/10/15 04:55:10;;;;;;;5.00;2.22;;;;;;;16.52;100.00;100038.75;5086509;28;20105;-69
2023/10/15 04:57:36;;;;;;;5.68;2.88;;;;;;;16.54;100.00;100032.25;5087674;28;20036;-70
2023/10/15 05:00:06;;;;;;;4.03;2.33;;;;;;;16.55;100.00;100033.06;5085422;28;20028;-70
2023/10/15 05:02:35;;;;;;;4.25;1.80;;;;;;;16.47;100.00;100031.44;5085699;28;20036;-71
2023/10/15 05:05:01;;;;;;;3.25;1.30;;;;;;;16.40;100.00;100032.38;5085721;28;20024;-72
2023/10/15 05:07:27;;;;;;;4.45;2.22;;;;;;;16.45;100.00;100032.63;5082486;28;20090;-69
2023/10/15 05:09:55;;;;;;;3.67;2.05;;;;;;;16.45;100.00;100030.81;5086490;28;20383;-69
2023/10/15 05:12:20;;;;;;;3.88;1.55;;;;;;;16.44;100.00;100031.00;5077187;28;20110;-69
2023/10/15 05:14:49;;;;;;;2.88;1.27;;;;;;;16.38;100.00;100031.75;5085749;28;20154;-70
2023/10/15 05:17:15;;;;;;;2.85;1.33;;;;;;;16.35;100.00;100032.16;5090506;28;20443;-68
2023/10/15 05:19:42;;;;;;;3.22;1.55;;;;;;;16.40;100.00;100029.75;5083650;28;20077;-68
2023/10/15 05:22:08;;;;;;;4.32;1.83;;;;;;;16.41;100.00;100031.38;5084954;28;20036;-69
2023/10/15 05:24:34;;;;;;;6.10;2.10;;;;;;;16.43;100.00;100035.44;5086782;28;20031;-69
2023/10/15 05:27:00;;;;;;;3.47;1.70;;;;;;;16.48;100.00;100032.25;5082720;28;20094;-69
2023/10/15 05:29:25;;;;;;;4.32;2.17;;;;;;;16.49;100.00;100034.69;5088812;28;20028;-68
2023/10/15 05:31:53;;;;;;;5.22;2.13;;;;;;;16.51;100.00;100039.75;5083308;28;20032;-68
2023/10/15 05:34:19;;;;;;;4.82;1.92;;;;;;;16.53;100.00;100041.19;5079761;28;20047;-67
2023/10/15 05:36:45;;;;;;;8.18;2.63;;;;;;;16.54;100.00;100047.25;5083616;28;20040;-67
2023/10/15 05:39:10;;;;;;;7.07;2.78;;;;;;;16.55;100.00;100048.84;5079282;28;20025;-67
2023/10/15 05:41:37;;;;;;;7.57;2.60;;;;;;;16.54;100.00;100047.25;5084914;28;20123;-68
2023/10/15 05:44:03;;;;;;;7.15;2.45;;;;;;;16.53;100.00;100054.31;5082796;28;20028;-68
2023/10/15 05:46:29;;;;;;;4.45;2.00;;;;;;;16.55;100.00;100049.66;5064416;28;20069;-67
2023/10/15 05:48:55;;;;;;;4.97;2.40;;;;;;;16.55;100.00;100051.47;5066840;28;20032;-68
2023/10/15 05:51:20;;;;;;;6.85;2.55;;;;;;;16.51;100.00;100058.97;5081153;28;20028;-68
2023/10/15 05:53:47;;;;;;;8.15;2.22;;;;;;;16.49;100.00;100054.91;5087425;28;20143;-67
2023/10/15 05:56:13;;;;;;;3.83;2.40;;;;;;;16.48;100.00;100055.91;5091644;28;20035;-67
2023/10/15 05:58:38;;;;;;;9.05;2.20;;;;;;;16.47;100.00;100051.66;5088055;28;20133;-68
2023/10/15 06:01:04;;;;;;;6.10;2.40;;;;;;;16.43;100.00;100059.09;5089252;28;20032;-67
2023/10/15 06:03:30;;;;;;;6.63;2.30;;;;;;;16.43;100.00;100060.94;5088756;28;20094;-68
2023/10/15 06:05:57;;;;;;;3.78;2.13;;;;;;;16.41;100.00;100063.75;5084192;28;20035;-67
2023/10/15 06:08:22;;;;;;;4.95;2.05;;;;;;;16.40;100.00;100067.38;5097892;28;20032;-68
2023/10/15 06:10:48;;;;;;;8.43;2.05;;;;;;;16.37;100.00;100067.75;5086205;28;20050;-68
2023/10/15 06:13:13;;;;;;;3.13;1.63;;;;;;;16.38;100.00;100072.00;5085812;28;20039;-69
2023/10/15 06:15:39;;;;;;;3.22;1.17;;;;;;;16.33;100.00;100069.16;5086417;28;20031;-69
2023/10/15 06:18:05;;;;;;;2.30;0.90;;;;;;;16.29;100.00;100070.53;5090644;28;20027;-69
2023/10/15 06:20:30;;;;;;;2.17;0.70;;;;;;;16.27;100.00;100078.59;5086831;28;20068;-69
2023/10/15 06:22:56;;;;;;;2.47;0.52;;;;;;;16.26;100.00;100079.59;5086330;28;20029;-71
2023/10/15 06:25:23;;;;;;;2.25;0.50;;;;;;;16.24;100.00;100086.88;5084121;28;20064;-69
2023/10/15 06:27:49;;;;;;;1.65;0.50;;;;;;;16.20;100.00;100083.00;5088103;28;20121;-69
2023/10/15 06:30:16;;;;;;;0.80;0.40;;;;;;;16.23;100.00;100082.63;5092857;28;20028;-71
2023/10/15 06:32:48;;;;;;;2.08;0.47;;;;;;;16.22;100.00;100088.88;5090497;28;20032;-71
2023/10/15 06:35:18;;;;;;;0.73;0.40;;;;;;;16.21;100.00;100087.25;5089338;28;20024;-70
2023/10/15 06:37:51;;;;;;;1.85;0.30;;;;;;;16.19;100.00;100091.06;5090483;28;20024;-71
2023/10/15 06:40:17;;;;;;;0.73;0.32;;;;;;;16.21;100.00;100092.50;5073383;28;20035;-70
2023/10/15 06:42:44;;;;;;;0.60;0.20;;;;;;;16.18;100.00;100094.69;5089901;28;20430;-70
2023/10/15 06:45:10;;;;;;;0.63;0.28;;;;;;;16.15;100.00;100095.06;5092707;28;20024;-71
2023/10/15 06:47:36;;;;;;;0.68;0.20;;;;;;;16.08;100.00;100089.75;5090102;28;20101;-71
2023/10/15 06:50:08;;;;;;;1.80;0.22;;;;;;;16.12;100.00;100091.00;5089283;28;20049;-71
2023/10/15 06:52:39;;;;;;;1.15;0.30;;;;;;;16.15;100.00;100089.81;5089367;28;20035;-71
2023/10/15 06:55:10;;;;;;;0.52;0.15;;;;;;;16.09;100.00;100088.75;5095446;28;20352;-72
2023/10/15 06:57:38;;;;;;;0.38;0.10;;;;;;;16.05;100.00;100084.91;5099026;28;20031;-71
2023/10/15 07:00:06;;;;;;;0.40;0.10;;;;;;;16.06;100.00;100081.28;5079096;28;20032;-70
2023/10/15 07:02:32;;;;;;;1.35;0.10;;;;;;;16.08;100.00;100079.25;5090004;28;20045;-71
2023/10/15 07:05:00;;;;;;;0.75;0.10;;;;;;;16.08;100.00;100091.56;5084654;28;20024;-71
2023/10/15 07:07:27;;;;;;;0.32;0.05;;;;;;;16.14;100.00;100088.19;5090184;28;20570;-72
2023/10/15 07:09:53;;;;;;;0.60;0.10;;;;;;;16.10;100.00;100093.00;5088783;28;20034;-71
2023/10/15 07:12:22;;;;;;;0.45;0.10;;;;;;;16.10;100.00;100098.25;5073398;28;20092;-70
2023/10/15 07:14:48;;;;;;;0.40;0.10;;;;;;;16.13;100.00;100091.81;5083395;28;20392;-70
2023/10/15 07:17:14;;;;;;;0.40;0.20;;;;;;;16.18;100.00;100095.50;5087991;28;20024;-71
2023/10/15 07:19:39;;;;;;;1.50;0.10;;;;;;;16.19;100.00;100088.44;5086707;28;20032;-71
2023/10/15 07:22:05;;;;;;;1.13;0.05;;;;;;;16.23;100.00;100093.13;5090776;28;20454;-71
2023/10/15 07:24:31;;;;;;;0.32;0.10;;;;;;;16.32;100.00;100098.25;5091699;28;20028;-72
2023/10/15 07:26:57;;;;;;;0.50;0.10;;;;;;;16.32;100.00;100090.38;5071790;28;20348;-72
2023/10/15 07:29:24;;;;;;;0.32;0.10;;;;;;;16.27;100.00;100094.38;5080885;28;20035;-71
2023/10/15 07:31:51;;;;;;;0.63;0.10;;;;;;;16.21;100.00;100099.56;5088983;28;20061;-70
2023/10/15 07:34:17;;;;;;;0.30;0.10;;;;;;;16.20;100.00;100093.50;5086926;28;20067;-68
2023/10/15 07:36:43;;;;;;;0.77;0.10;;;;;;;16.16;100.00;100086.19;5089195;28;20055;-70
2023/10/15 07:39:09;;;;;;;0.20;0.00;;;;;;;16.08;100.00;100088.94;5071139;28;20024;-72
2023/10/15 07:41:35;;;;;;;0.30;0.10;;;;;;;16.00;100.00;100097.78;5064387;28;20426;-71
2023/10/15 07:44:03;;;;;;;0.15;0.05;;;;;;;16.03;100.00;100094.78;5095616;28;20027;-71
2023/10/15 07:46:30;;;;;;;0.20;0.00;;;;;;;15.98;100.00;100099.78;5087944;28;20097;-71
2023/10/15 07:48:59;;;;;;;0.77;0.10;;;;;;;16.02;100.00;100094.97;5087121;28;20107;-71
2023/10/15 07:51:27;;;;;;;3.50;0.10;;;;;;;16.14;100.00;100096.06;5083277;28;20036;-67
2023/10/15 07:53:53;;;;;;;0.22;0.00;;;;;;;16.02;100.00;100106.31;5092243;28;20224;-67
2023/10/15 07:56:18;;;;;;;0.20;0.00;;;;;;;15.94;100.00;100106.44;5087182;28;20127;-67
2023/10/15 07:58:44;;;;;;;0.90;0.10;;;;;;;15.91;100.00;100102.34;5069061;28;20093;-67
2023/10/15 08:01:09;;;;;;;0.10;0.00;;;;;;;16.06;100.00;100096.22;5087442;28;20028;-67
2023/10/15 08:03:35;;;;;;;0.10;0.00;;;;;;;16.23;100.00;100095.75;5084590;28;20507;-67
2023/10/15 08:06:01;;;;;;;0.10;0.05;;;;;;;16.35;100.00;100097.88;5083095;28;20081;-67
2023/10/15 08:08:27;;;;;;;0.20;0.03;;;;;;;16.43;100.00;100098.53;5086051;28;20040;-67
2023/10/15 08:10:53;;;;;;;0.22;0.08;;;;;;;16.46;100.00;100105.25;5090753;28;20039;-67
2023/10/15 08:13:18;;;;;;;0.43;0.00;;;;;;;16.48;100.00;100108.50;5086402;28;20376;-66
2023/10/15 08:15:44;;;;;;;1.48;0.00;;;;;;;16.38;100.00;100106.19;5093732;28;21251;-67
2023/10/15 08:18:10;;;;;;;2.67;0.10;;;;;;;16.34;100.00;100104.94;5093256;28;20047;-68
2023/10/15 08:20:35;;;;;;;0.22;0.00;;;;;;;16.12;100.00;100098.06;5084756;28;20459;-68
2023/10/15 08:23:01;;;;;;;0.20;0.10;;;;;;;16.01;100.00;100102.06;5089087;28;20051;-67
2023/10/15 08:25:27;;;;;;;0.85;0.00;;;;;;;15.94;100.00;100106.44;5084766;28;20050;-67
2023/10/15 08:27:52;;;;;;;0.10;0.00;;;;;;;16.11;100.00;100110.41;5085880;28;20063;-67
2023/10/15 08:30:18;;;;;;;0.10;0.00;;;;;;;16.27;100.00;100104.88;5087471;28;20036;-67
2023/10/15 08:32:46;;;;;;;0.10;0.00;;;;;;;16.38;100.00;100108.00;5085915;28;20028;-67
2023/10/15 08:35:13;;;;;;;0.10;0.00;;;;;;;16.30;100.00;100110.78;5087802;28;21417;-68
2023/10/15 08:37:44;;;;;;;0.25;0.00;;;;;;;16.08;100.00;100091.56;5076959;28;20059;-67
2023/10/15 08:40:15;;;;;;;0.00;0.00;;;;;;;16.07;100.00;100098.66;5086560;28;20406;-68
2023/10/15 08:43:21;;;;;;;0.10;0.00;;;;;;;16.03;100.00;100092.16;5075865;28;20089;-67
2023/10/15 08:45:48;;;;;;;0.00;0.00;;;;;;;16.17;100.00;100093.06;5084601;28;20024;-68
2023/10/15 08:48:16;;;;;;;0.10;0.00;;;;;;;16.20;100.00;100098.75;5076565;28;20128;-68
2023/10/15 08:50:43;;;;;;;0.20;0.00;;;;;;;16.23;100.00;100095.75;5073185;28;20044;-67
2023/10/15 08:53:09;;;;;;;0.10;0.00;;;;;;;16.03;100.00;100086.09;5089060;28;20074;-68
2023/10/15 08:55:36;;;;;;;0.63;0.00;;;;;;;15.85;100.00;100091.78;5077895;28;20064;-68
2023/10/15 08:58:03;;;;;;;0.30;0.00;;;;;;;15.83;100.00;100093.78;5092868;28;20035;-68
2023/10/15 09:00:30;;;;;;;0.20;0.10;;;;;;;16.04;100.00;100078.03;5085387;28;20070;-67
2023/10/15 09:02:56;;;;;;;0.93;0.10;;;;;;;16.04;100.00;100080.66;5085787;28;20058;-68
2023/10/15 09:05:23;;;;;;;1.42;0.00;;;;;;;16.07;100.00;100076.84;5088341;28;20071;-68
2023/10/15 09:07:52;;;;;;;0.45;0.00;;;;;;;16.30;100.00;100076.59;5082574;28;20039;-67
2023/10/15 09:10:17;;;;;;;3.08;0.00;;;;;;;16.41;100.00;100074.25;5074699;28;20046;-68
2023/10/15 09:12:43;;;;;;;0.22;0.00;;;;;;;16.47;100.00;100083.19;5081370;28;20036;-68
2023/10/15 09:15:16;;;;;;;0.43;0.00;;;;;;;16.47;100.00;100084.00;5092141;28;20387;-68
2023/10/15 09:18:11;;;;;;;0.30;0.00;;;;;;;16.46;100.00;100085.03;5087379;28;20074;-68
2023/10/15 09:20:40;;;;;;;0.50;0.03;;;;;;;16.49;100.00;100092.53;5066544;28;20465;-68
2023/10/15 09:23:05;;;;;;;2.13;0.10;;;;;;;16.48;100.00;100096.16;5086040;28;20028;-67
2023/10/15 09:25:31;;;;;;;1.42;0.10;;;;;;;16.43;100.00;100097.75;5090865;28;20050;-66
2023/10/15 09:27:58;;;;;;;1.10;0.10;;;;;;;16.37;100.00;100111.63;5087011;28;20133;-67
2023/10/15 09:30:25;;;;;;;0.60;0.10;;;;;;;16.24;100.00;100118.41;5088647;28;20111;-69
2023/10/15 09:32:51;;;;;;;1.42;0.10;;;;;;;16.25;100.00;100113.97;5090198;28;20518;-67
2023/10/15 09:35:17;;;;;;;1.92;0.10;;;;;;;15.98;100.00;100098.97;5077839;28;20076;-67
2023/10/15 09:37:44;;;;;;;3.88;0.10;;;;;;;15.57;100.00;100108.28;5082219;28;20047;-68
2023/10/15 09:40:10;;;;;;;0.30;0.10;;;;;;;15.57;100.00;100120.59;5086226;28;20036;-68
2023/10/15 09:42:38;;;;;;;0.60;0.10;;;;;;;15.43;100.00;100134.53;5089723;28;20032;-68
2023/10/15 09:45:06;;;;;;;0.38;0.10;;;;;;;15.49;100.00;100132.00;5084121;28;20115;-68
2023/10/15 09:47:33;;;;;;;0.73;0.13;;;;;;;15.28;100.00;100134.53;5087267;28;20067;-68
2023/10/15 09:50:01;;;;;;;0.38;0.10;;;;;;;14.99;100.00;100139.81;5078182;28;21606;-64
2023/10/15 09:52:29;;;;;;;0.20;0.00;;;;;;;14.51;100.00;100141.94;5091681;28;20097;-65
2023/10/15 09:54:55;;;;;;;0.15;0.00;;;;;;;14.24;100.00;100140.66;5068035;28;20377;-66
2023/10/15 09:57:23;;;;;;;0.32;0.00;;;;;;;14.06;100.00;100159.31;5085376;28;20117;-66
2023/10/15 09:59:53;;;;;;;0.30;0.00;;;;;;;14.00;100.00;100180.13;5084572;28;20038;-66
2023/10/15 10:02:34;;;;;;;0.00;0.00;;;;;;;14.14;100.00;100192.50;5081017;28;20119;-66
2023/10/15 10:05:17;;;;;;;0.30;0.00;;;;;;;14.40;100.00;100198.19;5079408;28;20028;-66
2023/10/15 10:08:05;;;;;;;0.17;0.03;;;;;;;14.70;100.00;100190.41;5077839;28;20024;-66
2023/10/15 10:11:03;;;;;;;1.60;0.10;;;;;;;14.75;100.00;100188.91;5081302;28;20043;-66
2023/10/15 10:13:28;;;;;;;0.20;0.00;;;;;;;14.68;100.00;100180.09;5061979;28;20033;-66
2023/10/15 10:15:57;;;;;;;0.20;0.00;;;;;;;14.54;100.00;100194.03;5088097;28;20111;-68
2023/10/15 10:18:27;;;;;;;0.45;0.00;;;;;;;14.25;100.00;100195.50;5087412;28;20032;-67
2023/10/15 10:20:55;;;;;;;0.20;0.00;;;;;;;13.98;100.00;100203.88;5084384;28;20024;-67
2023/10/15 10:23:22;;;;;;;0.47;0.00;;;;;;;13.86;100.00;100205.25;5088197;28;20032;-66
2023/10/15 10:25:51;;;;;;;0.10;0.00;;;;;;;13.72;100.00;100206.78;5082742;28;20028;-67
2023/10/15 10:28:19;;;;;;;1.73;0.00;;;;;;;13.57;100.00;100211.94;5063643;28;20036;-67
2023/10/15 10:30:59;;;;;;;0.00;0.00;;;;;;;13.52;100.00;100209.03;5060688;28;20036;-68
2023/10/15 10:33:40;;;;;;;0.00;0.00;;;;;;;13.39;100.00;100195.66;5082216;28;20031;-67
2023/10/15 10:36:14;;;;;;;0.00;0.00;;;;;;;13.32;100.00;100189.47;5084824;28;20477;-68
2023/10/15 10:38:44;;;;;;;0.00;0.00;;;;;;;13.37;100.00;100188.94;5087142;28;20123;-67
2023/10/15 10:41:13;;;;;;;0.00;0.00;;;;;;;13.42;100.00;100182.22;5082755;28;20025;-67
2023/10/15 10:43:41;;;;;;;1.00;0.00;;;;;;;13.51;100.00;100181.22;5084082;28;20028;-67
2023/10/15 10:46:06;;;;;;;0.00;0.00;;;;;;;13.55;100.00;100177.28;5093379;28;20466;-66
2023/10/15 10:48:33;;;;;;;0.25;0.00;;;;;;;13.55;100.00;100182.50;5085794;28;20051;-66
2023/10/15 10:51:08;;;;;;;0.03;0.00;;;;;;;13.61;100.00;100179.22;5084998;28;20032;-66
2023/10/15 10:53:57;;;;;;;0.00;0.00;;;;;;;13.66;100.00;100173.47;5090876;28;20048;-67
2023/10/15 10:56:42;;;;;;;0.00;0.00;;;;;;;13.68;97.50;100183.75;5085832;28;20111;-66
2023/10/15 10:59:09;;;;;;;0.00;0.00;;;;;;;13.59;98.92;100191.66;5070724;28;20500;-63
2023/10/15 11:01:39;;;;;;;0.00;0.00;;;;;;;13.50;100.00;100207.56;5083870;28;20103;-64
2023/10/15 11:04:15;;;;;;;0.00;0.00;;;;;;;13.41;99.24;100209.38;5089769;28;20077;-63
2023/10/15 11:06:42;;;;;;;0.00;0.00;;;;;;;13.39;100.00;100216.59;5090395;28;20028;-63
2023/10/15 11:09:22;;;;;;;0.00;0.00;;;;;;;13.33;100.00;100206.78;5092894;28;20024;-63
2023/10/15 11:11:49;;;;;;;0.00;0.00;;;;;;;13.29;97.16;100205.50;5083546;28;20028;-63
2023/10/15 11:14:16;;;;;;;0.00;0.00;;;;;;;13.23;97.32;100203.56;5089967;28;20041;-62
2023/10/15 11:16:42;;;;;;;0.00;0.00;;;;;;;13.23;100.00;100193.91;5090372;28;20063;-63
2023/10/15 11:19:15;;;;;;;0.00;0.00;;;;;;;13.44;100.00;100179.44;5090769;28;20022;-62
2023/10/15 11:21:42;;;;;;;0.00;0.00;;;;;;;13.57;98.03;100175.31;5089169;28;20124;-63
2023/10/15 11:24:09;;;;;;;1.02;0.00;;;;;;;13.63;91.48;100167.75;5091274;28;20135;-63
2023/10/15 11:26:41;;;;;;;0.08;0.00;;;;;;;13.60;96.72;100172.34;5073795;28;20042;-64
2023/10/15 11:29:09;;;;;;;0.08;0.00;;;;;;;13.62;96.36;100185.25;5091111;28;20454;-63
2023/10/15 11:31:35;;;;;;;0.00;0.00;;;;;;;13.67;100.00;100190.81;5088399;28;20624;-64
2023/10/15 11:34:01;;;;;;;0.00;0.00;;;;;;;13.81;99.68;100197.91;5096486;28;20032;-63
2023/10/15 11:36:34;;;;;;;0.00;0.00;;;;;;;13.75;94.23;100197.78;5095950;28;20034;-68
2023/10/15 11:39:00;;;;;;;0.00;0.00;;;;;;;13.57;100.00;100211.13;5084600;28;20031;-68
2023/10/15 11:41:30;;;;;;;0.00;0.00;;;;;;;13.51;100.00;100230.94;5081912;28;20213;-67